sensor_id;sensor_type;location;lat;lon;timestamp;P1;durP1;ratioP1;P2;durP2;ratioP2
84264;SDS011;74412;45.626;5.108;2024-03-08T00:02:34;7.00;;;7.00;;
84264;SDS011;74412;45.626;5.108;2024-03-08T00:05:02;7.75;;;7.75;;
84264;SDS011;74412;45.626;5.108;2024-03-08T00:07:28;7.00;;;6.75;;
84264;SDS011;74412;45.626;5.108;2024-03-08T00:09:55;8.00;;;8.00;;
84264;SDS011;74412;45.626;5.108;2024-03-08T00:12:22;9.00;;;8.50;;
84264;SDS011;74412;45.626;5.108;2024-03-08T00:14:50;9.75;;;7.75;;
84264;SDS011;74412;45.626;5.108;2024-03-08T00:17:18;10.75;;;7.75;;
84264;SDS011;74412;45.626;5.108;2024-03-08T00:19:45;6.50;;;6.00;;
84264;SDS011;74412;45.626;5.108;2024-03-08T00:22:12;7.75;;;7.00;;
84264;SDS011;74412;45.626;5.108;2024-03-08T00:24:38;9.00;;;7.25;;
84264;SDS011;74412;45.626;5.108;2024-03-08T00:27:05;7.75;;;7.75;;
84264;SDS011;74412;45.626;5.108;2024-03-08T00:29:32;7.25;;;7.25;;
84264;SDS011;74412;45.626;5.108;2024-03-08T00:31:59;9.00;;;8.00;;
84264;SDS011;74412;45.626;5.108;2024-03-08T00:34:27;10.75;;;9.50;;
84264;SDS011;74412;45.626;5.108;2024-03-08T00:36:54;8.75;;;7.75;;
84264;SDS011;74412;45.626;5.108;2024-03-08T00:39:20;9.00;;;7.00;;
84264;SDS011;74412;45.626;5.108;2024-03-08T00:41:47;10.25;;;9.00;;
84264;SDS011;74412;45.626;5.108;2024-03-08T00:44:14;10.00;;;8.00;;
84264;SDS011;74412;45.626;5.108;2024-03-08T00:46:40;9.75;;;8.00;;
84264;SDS011;74412;45.626;5.108;2024-03-08T00:49:08;8.75;;;8.75;;
84264;SDS011;74412;45.626;5.108;2024-03-08T00:51:36;10.75;;;9.50;;
84264;SDS011;74412;45.626;5.108;2024-03-08T00:54:02;9.00;;;8.00;;
84264;SDS011;74412;45.626;5.108;2024-03-08T00:56:29;8.25;;;7.75;;
84264;SDS011;74412;45.626;5.108;2024-03-08T00:58:56;6.50;;;6.50;;
84264;SDS011;74412;45.626;5.108;2024-03-08T01:01:22;8.75;;;6.50;;
84264;SDS011;74412;45.626;5.108;2024-03-08T01:03:49;7.50;;;7.00;;
84264;SDS011;74412;45.626;5.108;2024-03-08T01:06:16;10.00;;;8.75;;
84264;SDS011;74412;45.626;5.108;2024-03-08T01:08:45;9.75;;;7.50;;
84264;SDS011;74412;45.626;5.108;2024-03-08T01:11:12;7.25;;;7.25;;
84264;SDS011;74412;45.626;5.108;2024-03-08T01:13:39;8.00;;;7.25;;
84264;SDS011;74412;45.626;5.108;2024-03-08T01:16:06;6.50;;;6.50;;
84264;SDS011;74412;45.626;5.108;2024-03-08T01:18:33;7.00;;;7.00;;
84264;SDS011;74412;45.626;5.108;2024-03-08T01:20:59;8.00;;;8.00;;
84264;SDS011;74412;45.626;5.108;2024-03-08T01:23:26;6.25;;;5.00;;
84264;SDS011;74412;45.626;5.108;2024-03-08T01:25:55;7.25;;;7.25;;
84264;SDS011;74412;45.626;5.108;2024-03-08T01:28:23;7.00;;;7.00;;
84264;SDS011;74412;45.626;5.108;2024-03-08T01:30:50;8.00;;;6.25;;
84264;SDS011;74412;45.626;5.108;2024-03-08T01:33:20;8.25;;;6.50;;
84264;SDS011;74412;45.626;5.108;2024-03-08T01:35:47;7.00;;;7.00;;
84264;SDS011;74412;45.626;5.108;2024-03-08T01:38:14;6.75;;;6.25;;
84264;SDS011;74412;45.626;5.108;2024-03-08T01:40:41;7.00;;;6.00;;
84264;SDS011;74412;45.626;5.108;2024-03-08T01:43:21;9.75;;;7.50;;
84264;SDS011;74412;45.626;5.108;2024-03-08T01:45:52;6.75;;;6.75;;
84264;SDS011;74412;45.626;5.108;2024-03-08T01:48:19;7.00;;;6.75;;
84264;SDS011;74412;45.626;5.108;2024-03-08T01:50:48;8.00;;;8.00;;
84264;SDS011;74412;45.626;5.108;2024-03-08T01:53:16;7.00;;;7.00;;
84264;SDS011;74412;45.626;5.108;2024-03-08T01:55:44;6.00;;;6.00;;
84264;SDS011;74412;45.626;5.108;2024-03-08T01:58:13;9.00;;;6.00;;
84264;SDS011;74412;45.626;5.108;2024-03-08T02:00:43;5.75;;;5.75;;
84264;SDS011;74412;45.626;5.108;2024-03-08T02:03:11;6.25;;;6.25;;
84264;SDS011;74412;45.626;5.108;2024-03-08T02:05:37;7.00;;;7.00;;
84264;SDS011;74412;45.626;5.108;2024-03-08T02:08:06;7.50;;;6.75;;
84264;SDS011;74412;45.626;5.108;2024-03-08T02:10:37;10.25;;;7.75;;
84264;SDS011;74412;45.626;5.108;2024-03-08T02:13:04;5.00;;;5.00;;
84264;SDS011;74412;45.626;5.108;2024-03-08T02:18:21;8.75;;;8.75;;
84264;SDS011;74412;45.626;5.108;2024-03-08T02:20:50;6.50;;;6.50;;
84264;SDS011;74412;45.626;5.108;2024-03-08T02:23:17;11.00;;;7.25;;
84264;SDS011;74412;45.626;5.108;2024-03-08T02:25:44;8.50;;;8.00;;
84264;SDS011;74412;45.626;5.108;2024-03-08T02:28:11;7.00;;;7.00;;
84264;SDS011;74412;45.626;5.108;2024-03-08T02:30:39;11.25;;;7.00;;
84264;SDS011;74412;45.626;5.108;2024-03-08T02:33:05;8.00;;;8.00;;
84264;SDS011;74412;45.626;5.108;2024-03-08T02:35:34;9.25;;;8.50;;
84264;SDS011;74412;45.626;5.108;2024-03-08T02:38:03;7.00;;;6.75;;
84264;SDS011;74412;45.626;5.108;2024-03-08T02:40:30;9.25;;;8.00;;
84264;SDS011;74412;45.626;5.108;2024-03-08T02:42:57;6.75;;;6.00;;
84264;SDS011;74412;45.626;5.108;2024-03-08T02:45:23;7.25;;;6.75;;
84264;SDS011;74412;45.626;5.108;2024-03-08T02:47:51;8.50;;;6.75;;
84264;SDS011;74412;45.626;5.108;2024-03-08T02:50:18;7.00;;;6.25;;
84264;SDS011;74412;45.626;5.108;2024-03-08T02:52:44;8.50;;;8.25;;
84264;SDS011;74412;45.626;5.108;2024-03-08T02:55:13;9.75;;;9.00;;
84264;SDS011;74412;45.626;5.108;2024-03-08T02:57:41;8.00;;;8.00;;
84264;SDS011;74412;45.626;5.108;2024-03-08T03:00:08;9.50;;;8.00;;
84264;SDS011;74412;45.626;5.108;2024-03-08T03:02:36;7.00;;;7.00;;
84264;SDS011;74412;45.626;5.108;2024-03-08T03:05:03;11.75;;;8.00;;
84264;SDS011;74412;45.626;5.108;2024-03-08T03:07:31;10.00;;;7.00;;
84264;SDS011;74412;45.626;5.108;2024-03-08T03:09:58;11.50;;;8.50;;
84264;SDS011;74412;45.626;5.108;2024-03-08T03:12:26;8.00;;;7.00;;
84264;SDS011;74412;45.626;5.108;2024-03-08T03:14:53;9.00;;;8.50;;
84264;SDS011;74412;45.626;5.108;2024-03-08T03:17:21;10.25;;;10.25;;
84264;SDS011;74412;45.626;5.108;2024-03-08T03:19:48;8.50;;;7.25;;
84264;SDS011;74412;45.626;5.108;2024-03-08T03:22:14;8.75;;;8.25;;
84264;SDS011;74412;45.626;5.108;2024-03-08T03:24:41;7.50;;;7.00;;
84264;SDS011;74412;45.626;5.108;2024-03-08T03:27:08;12.25;;;8.00;;
84264;SDS011;74412;45.626;5.108;2024-03-08T03:29:38;8.25;;;7.50;;
84264;SDS011;74412;45.626;5.108;2024-03-08T03:32:05;9.00;;;8.75;;
84264;SDS011;74412;45.626;5.108;2024-03-08T03:34:34;11.00;;;11.00;;
84264;SDS011;74412;45.626;5.108;2024-03-08T03:37:02;14.50;;;10.75;;
84264;SDS011;74412;45.626;5.108;2024-03-08T03:39:28;13.25;;;12.50;;
84264;SDS011;74412;45.626;5.108;2024-03-08T03:41:56;13.00;;;10.25;;
84264;SDS011;74412;45.626;5.108;2024-03-08T03:44:23;17.75;;;12.50;;
84264;SDS011;74412;45.626;5.108;2024-03-08T03:46:51;11.00;;;10.25;;
84264;SDS011;74412;45.626;5.108;2024-03-08T03:49:18;11.25;;;10.50;;
84264;SDS011;74412;45.626;5.108;2024-03-08T03:51:45;11.25;;;11.00;;
84264;SDS011;74412;45.626;5.108;2024-03-08T03:54:12;13.75;;;13.00;;
84264;SDS011;74412;45.626;5.108;2024-03-08T03:56:38;15.00;;;11.50;;
84264;SDS011;74412;45.626;5.108;2024-03-08T03:59:05;13.50;;;12.25;;
84264;SDS011;74412;45.626;5.108;2024-03-08T04:01:32;12.00;;;11.25;;
84264;SDS011;74412;45.626;5.108;2024-03-08T04:04:00;9.00;;;9.00;;
84264;SDS011;74412;45.626;5.108;2024-03-08T04:06:27;11.50;;;10.50;;
84264;SDS011;74412;45.626;5.108;2024-03-08T04:08:53;12.75;;;10.25;;
84264;SDS011;74412;45.626;5.108;2024-03-08T04:11:20;16.00;;;10.25;;
84264;SDS011;74412;45.626;5.108;2024-03-08T04:13:47;11.75;;;9.00;;
84264;SDS011;74412;45.626;5.108;2024-03-08T04:16:16;9.25;;;8.25;;
84264;SDS011;74412;45.626;5.108;2024-03-08T04:18:44;10.50;;;9.00;;
84264;SDS011;74412;45.626;5.108;2024-03-08T04:21:12;9.00;;;9.00;;
84264;SDS011;74412;45.626;5.108;2024-03-08T04:23:38;8.00;;;8.00;;
84264;SDS011;74412;45.626;5.108;2024-03-08T04:26:05;11.75;;;9.25;;
84264;SDS011;74412;45.626;5.108;2024-03-08T04:28:34;6.75;;;6.25;;
84264;SDS011;74412;45.626;5.108;2024-03-08T04:31:02;11.50;;;8.75;;
84264;SDS011;74412;45.626;5.108;2024-03-08T04:33:29;10.25;;;10.00;;
84264;SDS011;74412;45.626;5.108;2024-03-08T04:35:55;10.50;;;10.50;;
84264;SDS011;74412;45.626;5.108;2024-03-08T04:38:24;12.00;;;9.50;;
84264;SDS011;74412;45.626;5.108;2024-03-08T04:40:50;9.75;;;9.75;;
84264;SDS011;74412;45.626;5.108;2024-03-08T04:43:17;8.50;;;7.75;;
84264;SDS011;74412;45.626;5.108;2024-03-08T04:45:45;8.50;;;7.75;;
84264;SDS011;74412;45.626;5.108;2024-03-08T04:48:13;8.00;;;8.00;;
84264;SDS011;74412;45.626;5.108;2024-03-08T04:50:40;9.25;;;8.00;;
84264;SDS011;74412;45.626;5.108;2024-03-08T04:53:07;13.00;;;9.25;;
84264;SDS011;74412;45.626;5.108;2024-03-08T04:55:35;9.75;;;9.75;;
84264;SDS011;74412;45.626;5.108;2024-03-08T04:58:02;5.00;;;5.00;;
84264;SDS011;74412;45.626;5.108;2024-03-08T05:00:30;13.75;;;10.75;;
84264;SDS011;74412;45.626;5.108;2024-03-08T05:02:57;13.00;;;8.25;;
84264;SDS011;74412;45.626;5.108;2024-03-08T05:05:24;10.25;;;8.00;;
84264;SDS011;74412;45.626;5.108;2024-03-08T05:07:53;12.00;;;10.00;;
84264;SDS011;74412;45.626;5.108;2024-03-08T05:10:20;12.50;;;11.00;;
84264;SDS011;74412;45.626;5.108;2024-03-08T05:12:48;12.25;;;12.25;;
84264;SDS011;74412;45.626;5.108;2024-03-08T05:15:15;14.00;;;11.75;;
84264;SDS011;74412;45.626;5.108;2024-03-08T05:17:41;16.75;;;13.00;;
84264;SDS011;74412;45.626;5.108;2024-03-08T05:20:08;14.25;;;14.00;;
84264;SDS011;74412;45.626;5.108;2024-03-08T05:22:37;18.25;;;17.00;;
84264;SDS011;74412;45.626;5.108;2024-03-08T05:25:05;16.50;;;13.50;;
84264;SDS011;74412;45.626;5.108;2024-03-08T05:27:33;15.50;;;14.75;;
84264;SDS011;74412;45.626;5.108;2024-03-08T05:30:01;15.00;;;14.75;;
84264;SDS011;74412;45.626;5.108;2024-03-08T05:32:29;15.50;;;13.25;;
84264;SDS011;74412;45.626;5.108;2024-03-08T05:34:55;14.00;;;14.00;;
84264;SDS011;74412;45.626;5.108;2024-03-08T05:37:22;14.00;;;13.50;;
84264;SDS011;74412;45.626;5.108;2024-03-08T05:39:49;17.00;;;13.25;;
84264;SDS011;74412;45.626;5.108;2024-03-08T05:42:16;15.75;;;13.25;;
84264;SDS011;74412;45.626;5.108;2024-03-08T05:44:42;19.25;;;16.75;;
84264;SDS011;74412;45.626;5.108;2024-03-08T05:47:10;19.25;;;15.00;;
84264;SDS011;74412;45.626;5.108;2024-03-08T05:49:37;14.25;;;12.50;;
84264;SDS011;74412;45.626;5.108;2024-03-08T05:52:04;20.50;;;16.25;;
84264;SDS011;74412;45.626;5.108;2024-03-08T05:54:31;14.25;;;12.50;;
84264;SDS011;74412;45.626;5.108;2024-03-08T05:56:58;18.75;;;17.75;;
84264;SDS011;74412;45.626;5.108;2024-03-08T05:59:24;21.00;;;20.00;;
84264;SDS011;74412;45.626;5.108;2024-03-08T06:01:52;18.25;;;16.50;;
84264;SDS011;74412;45.626;5.108;2024-03-08T06:04:19;22.75;;;20.00;;
84264;SDS011;74412;45.626;5.108;2024-03-08T06:06:46;19.00;;;15.50;;
84264;SDS011;74412;45.626;5.108;2024-03-08T06:09:13;19.25;;;18.00;;
84264;SDS011;74412;45.626;5.108;2024-03-08T06:11:42;19.25;;;17.00;;
84264;SDS011;74412;45.626;5.108;2024-03-08T06:14:09;21.00;;;19.75;;
84264;SDS011;74412;45.626;5.108;2024-03-08T06:16:35;17.25;;;14.00;;
84264;SDS011;74412;45.626;5.108;2024-03-08T06:19:03;20.75;;;18.75;;
84264;SDS011;74412;45.626;5.108;2024-03-08T06:21:32;20.50;;;17.75;;
84264;SDS011;74412;45.626;5.108;2024-03-08T06:23:58;22.00;;;19.00;;
84264;SDS011;74412;45.626;5.108;2024-03-08T06:26:25;22.00;;;17.75;;
84264;SDS011;74412;45.626;5.108;2024-03-08T06:28:53;19.50;;;18.25;;
84264;SDS011;74412;45.626;5.108;2024-03-08T06:31:20;20.75;;;17.50;;
84264;SDS011;74412;45.626;5.108;2024-03-08T06:33:47;19.25;;;16.75;;
84264;SDS011;74412;45.626;5.108;2024-03-08T06:36:15;19.50;;;17.75;;
84264;SDS011;74412;45.626;5.108;2024-03-08T06:38:45;20.25;;;16.75;;
84264;SDS011;74412;45.626;5.108;2024-03-08T06:41:11;15.00;;;15.00;;
84264;SDS011;74412;45.626;5.108;2024-03-08T06:43:40;19.00;;;16.00;;
84264;SDS011;74412;45.626;5.108;2024-03-08T06:46:07;18.50;;;18.25;;
84264;SDS011;74412;45.626;5.108;2024-03-08T06:48:34;19.00;;;18.50;;
84264;SDS011;74412;45.626;5.108;2024-03-08T06:51:03;20.50;;;16.75;;
84264;SDS011;74412;45.626;5.108;2024-03-08T06:53:30;16.75;;;16.75;;
84264;SDS011;74412;45.626;5.108;2024-03-08T06:55:58;16.75;;;15.25;;
84264;SDS011;74412;45.626;5.108;2024-03-08T06:58:25;20.75;;;15.50;;
84264;SDS011;74412;45.626;5.108;2024-03-08T07:00:52;21.00;;;18.00;;
84264;SDS011;74412;45.626;5.108;2024-03-08T07:03:19;18.00;;;16.25;;
84264;SDS011;74412;45.626;5.108;2024-03-08T07:05:47;13.75;;;13.50;;
84264;SDS011;74412;45.626;5.108;2024-03-08T07:08:13;17.75;;;16.50;;
84264;SDS011;74412;45.626;5.108;2024-03-08T07:10:41;17.00;;;16.00;;
84264;SDS011;74412;45.626;5.108;2024-03-08T07:13:12;19.25;;;15.50;;
84264;SDS011;74412;45.626;5.108;2024-03-08T07:15:42;15.25;;;15.25;;
84264;SDS011;74412;45.626;5.108;2024-03-08T07:18:09;14.25;;;14.00;;
84264;SDS011;74412;45.626;5.108;2024-03-08T07:20:39;16.25;;;14.75;;
84264;SDS011;74412;45.626;5.108;2024-03-08T07:23:06;23.00;;;22.00;;
84264;SDS011;74412;45.626;5.108;2024-03-08T07:25:35;22.25;;;18.25;;
84264;SDS011;74412;45.626;5.108;2024-03-08T07:28:04;16.75;;;15.75;;
84264;SDS011;74412;45.626;5.108;2024-03-08T07:30:33;17.50;;;14.25;;
84264;SDS011;74412;45.626;5.108;2024-03-08T07:33:27;24.25;;;20.50;;
84264;SDS011;74412;45.626;5.108;2024-03-08T07:35:54;17.25;;;17.00;;
84264;SDS011;74412;45.626;5.108;2024-03-08T07:38:21;24.75;;;21.00;;
84264;SDS011;74412;45.626;5.108;2024-03-08T07:40:48;21.25;;;19.50;;
84264;SDS011;74412;45.626;5.108;2024-03-08T07:43:17;18.25;;;17.00;;
84264;SDS011;74412;45.626;5.108;2024-03-08T07:45:45;23.50;;;20.00;;
84264;SDS011;74412;45.626;5.108;2024-03-08T07:48:12;19.25;;;18.50;;
84264;SDS011;74412;45.626;5.108;2024-03-08T07:50:39;24.50;;;20.75;;
84264;SDS011;74412;45.626;5.108;2024-03-08T07:53:06;18.25;;;18.25;;
84264;SDS011;74412;45.626;5.108;2024-03-08T07:55:33;19.25;;;18.50;;
84264;SDS011;74412;45.626;5.108;2024-03-08T07:58:00;21.00;;;16.00;;
84264;SDS011;74412;45.626;5.108;2024-03-08T08:00:27;23.25;;;21.25;;
84264;SDS011;74412;45.626;5.108;2024-03-08T08:02:57;24.50;;;19.50;;
84264;SDS011;74412;45.626;5.108;2024-03-08T08:05:24;20.25;;;18.25;;
84264;SDS011;74412;45.626;5.108;2024-03-08T08:07:51;16.75;;;13.50;;
84264;SDS011;74412;45.626;5.108;2024-03-08T08:10:18;20.50;;;19.00;;
84264;SDS011;74412;45.626;5.108;2024-03-08T08:12:46;18.00;;;17.00;;
84264;SDS011;74412;45.626;5.108;2024-03-08T08:15:13;22.25;;;18.25;;
84264;SDS011;74412;45.626;5.108;2024-03-08T08:17:41;20.75;;;19.00;;
84264;SDS011;74412;45.626;5.108;2024-03-08T08:20:09;20.50;;;18.00;;
84264;SDS011;74412;45.626;5.108;2024-03-08T08:22:37;15.75;;;15.00;;
84264;SDS011;74412;45.626;5.108;2024-03-08T08:25:05;19.25;;;14.25;;
84264;SDS011;74412;45.626;5.108;2024-03-08T08:27:31;16.25;;;15.25;;
84264;SDS011;74412;45.626;5.108;2024-03-08T08:29:58;18.50;;;16.25;;
84264;SDS011;74412;45.626;5.108;2024-03-08T08:32:25;16.50;;;16.50;;
84264;SDS011;74412;45.626;5.108;2024-03-08T08:34:52;14.75;;;13.75;;
84264;SDS011;74412;45.626;5.108;2024-03-08T08:37:19;15.75;;;13.75;;
84264;SDS011;74412;45.626;5.108;2024-03-08T08:39:46;17.00;;;16.50;;
84264;SDS011;74412;45.626;5.108;2024-03-08T08:42:16;15.25;;;15.25;;
84264;SDS011;74412;45.626;5.108;2024-03-08T08:44:43;17.25;;;13.00;;
84264;SDS011;74412;45.626;5.108;2024-03-08T08:47:09;15.00;;;15.00;;
84264;SDS011;74412;45.626;5.108;2024-03-08T08:49:36;14.75;;;14.50;;
84264;SDS011;74412;45.626;5.108;2024-03-08T08:52:03;16.25;;;13.75;;
84264;SDS011;74412;45.626;5.108;2024-03-08T08:54:31;17.50;;;15.50;;
84264;SDS011;74412;45.626;5.108;2024-03-08T08:56:58;19.25;;;16.25;;
84264;SDS011;74412;45.626;5.108;2024-03-08T08:59:25;9.75;;;9.75;;
84264;SDS011;74412;45.626;5.108;2024-03-08T09:01:55;14.75;;;13.75;;
84264;SDS011;74412;45.626;5.108;2024-03-08T09:04:22;19.25;;;13.25;;
84264;SDS011;74412;45.626;5.108;2024-03-08T09:06:48;16.75;;;15.00;;
84264;SDS011;74412;45.626;5.108;2024-03-08T09:09:15;18.00;;;14.00;;
84264;SDS011;74412;45.626;5.108;2024-03-08T09:11:43;17.25;;;15.25;;
84264;SDS011;74412;45.626;5.108;2024-03-08T09:14:11;15.50;;;14.00;;
84264;SDS011;74412;45.626;5.108;2024-03-08T09:16:38;18.75;;;16.75;;
84264;SDS011;74412;45.626;5.108;2024-03-08T09:19:04;19.50;;;18.00;;
84264;SDS011;74412;45.626;5.108;2024-03-08T09:21:31;16.00;;;15.50;;
84264;SDS011;74412;45.626;5.108;2024-03-08T09:23:59;12.50;;;11.75;;
84264;SDS011;74412;45.626;5.108;2024-03-08T09:26:26;18.50;;;15.50;;
84264;SDS011;74412;45.626;5.108;2024-03-08T09:28:54;16.00;;;15.00;;
84264;SDS011;74412;45.626;5.108;2024-03-08T09:31:21;16.25;;;15.25;;
84264;SDS011;74412;45.626;5.108;2024-03-08T09:33:47;15.75;;;15.75;;
84264;SDS011;74412;45.626;5.108;2024-03-08T09:36:15;15.25;;;15.00;;
84264;SDS011;74412;45.626;5.108;2024-03-08T09:38:42;17.25;;;13.25;;
84264;SDS011;74412;45.626;5.108;2024-03-08T09:41:09;13.00;;;13.00;;
84264;SDS011;74412;45.626;5.108;2024-03-08T09:43:35;12.00;;;12.00;;
84264;SDS011;74412;45.626;5.108;2024-03-08T09:46:04;13.75;;;12.00;;
84264;SDS011;74412;45.626;5.108;2024-03-08T09:48:33;11.50;;;11.50;;
84264;SDS011;74412;45.626;5.108;2024-03-08T09:51:01;10.25;;;9.25;;
84264;SDS011;74412;45.626;5.108;2024-03-08T09:53:29;14.00;;;13.75;;
84264;SDS011;74412;45.626;5.108;2024-03-08T09:55:56;15.50;;;12.75;;
84264;SDS011;74412;45.626;5.108;2024-03-08T09:58:22;12.50;;;11.50;;
84264;SDS011;74412;45.626;5.108;2024-03-08T10:01:17;16.25;;;16.25;;
84264;SDS011;74412;45.626;5.108;2024-03-08T10:03:44;15.00;;;14.00;;
84264;SDS011;74412;45.626;5.108;2024-03-08T10:06:14;15.25;;;14.75;;
84264;SDS011;74412;45.626;5.108;2024-03-08T10:08:40;12.25;;;9.00;;
84264;SDS011;74412;45.626;5.108;2024-03-08T10:11:07;15.50;;;14.25;;
84264;SDS011;74412;45.626;5.108;2024-03-08T10:13:36;15.75;;;14.00;;
84264;SDS011;74412;45.626;5.108;2024-03-08T10:16:05;16.25;;;16.25;;
84264;SDS011;74412;45.626;5.108;2024-03-08T10:18:33;14.25;;;12.50;;
84264;SDS011;74412;45.626;5.108;2024-03-08T10:21:04;12.75;;;12.75;;
84264;SDS011;74412;45.626;5.108;2024-03-08T10:23:32;14.00;;;13.75;;
84264;SDS011;74412;45.626;5.108;2024-03-08T10:26:11;13.50;;;12.50;;
84264;SDS011;74412;45.626;5.108;2024-03-08T10:28:40;13.50;;;12.50;;
84264;SDS011;74412;45.626;5.108;2024-03-08T10:31:07;12.75;;;12.50;;
84264;SDS011;74412;45.626;5.108;2024-03-08T10:33:36;15.75;;;13.25;;
84264;SDS011;74412;45.626;5.108;2024-03-08T10:36:05;13.00;;;12.00;;
84264;SDS011;74412;45.626;5.108;2024-03-08T10:38:35;12.00;;;10.00;;
84264;SDS011;74412;45.626;5.108;2024-03-08T10:41:04;11.25;;;11.25;;
84264;SDS011;74412;45.626;5.108;2024-03-08T10:43:32;14.25;;;10.50;;
84264;SDS011;74412;45.626;5.108;2024-03-08T10:46:11;11.00;;;11.00;;
84264;SDS011;74412;45.626;5.108;2024-03-08T10:48:49;14.00;;;11.00;;
84264;SDS011;74412;45.626;5.108;2024-03-08T10:51:21;13.00;;;11.75;;
84264;SDS011;74412;45.626;5.108;2024-03-08T10:53:48;13.25;;;11.00;;
84264;SDS011;74412;45.626;5.108;2024-03-08T10:56:16;12.50;;;11.75;;
84264;SDS011;74412;45.626;5.108;2024-03-08T10:58:43;13.00;;;11.50;;
84264;SDS011;74412;45.626;5.108;2024-03-08T11:01:10;13.50;;;12.25;;
84264;SDS011;74412;45.626;5.108;2024-03-08T11:03:43;12.50;;;12.25;;
84264;SDS011;74412;45.626;5.108;2024-03-08T11:06:14;13.75;;;11.50;;
84264;SDS011;74412;45.626;5.108;2024-03-08T11:08:43;14.25;;;14.25;;
84264;SDS011;74412;45.626;5.108;2024-03-08T11:13:59;12.25;;;10.75;;
84264;SDS011;74412;45.626;5.108;2024-03-08T11:16:39;13.50;;;13.50;;
84264;SDS011;74412;45.626;5.108;2024-03-08T11:19:23;11.75;;;10.75;;
84264;SDS011;74412;45.626;5.108;2024-03-08T11:22:00;9.50;;;9.50;;
84264;SDS011;74412;45.626;5.108;2024-03-08T11:24:34;5.00;;;5.00;;
84264;SDS011;74412;45.626;5.108;2024-03-08T11:27:04;2.00;;;2.00;;
84264;SDS011;74412;45.626;5.108;2024-03-08T11:29:38;2.50;;;2.50;;
84264;SDS011;74412;45.626;5.108;2024-03-08T11:32:09;9.00;;;9.00;;
84264;SDS011;74412;45.626;5.108;2024-03-08T11:34:37;15.25;;;11.75;;
84264;SDS011;74412;45.626;5.108;2024-03-08T11:37:12;12.75;;;12.00;;
84264;SDS011;74412;45.626;5.108;2024-03-08T11:39:39;15.00;;;11.50;;
84264;SDS011;74412;45.626;5.108;2024-03-08T11:42:06;16.25;;;14.00;;
84264;SDS011;74412;45.626;5.108;2024-03-08T11:44:35;14.50;;;13.50;;
84264;SDS011;74412;45.626;5.108;2024-03-08T11:47:02;13.50;;;11.75;;
84264;SDS011;74412;45.626;5.108;2024-03-08T11:49:31;16.25;;;14.25;;
84264;SDS011;74412;45.626;5.108;2024-03-08T11:51:59;10.25;;;8.75;;
84264;SDS011;74412;45.626;5.108;2024-03-08T11:54:27;12.75;;;12.50;;
84264;SDS011;74412;45.626;5.108;2024-03-08T11:56:54;14.25;;;14.25;;
84264;SDS011;74412;45.626;5.108;2024-03-08T11:59:25;15.00;;;13.00;;
84264;SDS011;74412;45.626;5.108;2024-03-08T12:01:59;13.25;;;12.00;;
84264;SDS011;74412;45.626;5.108;2024-03-08T12:04:27;13.25;;;11.50;;
84264;SDS011;74412;45.626;5.108;2024-03-08T12:06:53;15.00;;;12.25;;
84264;SDS011;74412;45.626;5.108;2024-03-08T12:09:20;16.50;;;13.00;;
84264;SDS011;74412;45.626;5.108;2024-03-08T12:11:49;14.75;;;14.25;;
84264;SDS011;74412;45.626;5.108;2024-03-08T12:14:16;16.50;;;14.00;;
84264;SDS011;74412;45.626;5.108;2024-03-08T12:16:42;19.50;;;18.50;;
84264;SDS011;74412;45.626;5.108;2024-03-08T12:19:09;19.25;;;18.25;;
84264;SDS011;74412;45.626;5.108;2024-03-08T12:21:36;17.00;;;16.50;;
84264;SDS011;74412;45.626;5.108;2024-03-08T12:24:07;17.00;;;14.25;;
84264;SDS011;74412;45.626;5.108;2024-03-08T12:26:36;16.75;;;16.75;;
84264;SDS011;74412;45.626;5.108;2024-03-08T12:29:16;12.25;;;11.50;;
84264;SDS011;74412;45.626;5.108;2024-03-08T12:31:47;15.00;;;14.50;;
84264;SDS011;74412;45.626;5.108;2024-03-08T12:34:13;16.75;;;15.75;;
84264;SDS011;74412;45.626;5.108;2024-03-08T12:36:46;18.00;;;16.00;;
84264;SDS011;74412;45.626;5.108;2024-03-08T12:39:15;17.25;;;16.75;;
84264;SDS011;74412;45.626;5.108;2024-03-08T12:41:42;19.50;;;18.50;;
84264;SDS011;74412;45.626;5.108;2024-03-08T12:44:10;18.00;;;18.00;;
84264;SDS011;74412;45.626;5.108;2024-03-08T12:46:38;16.50;;;15.75;;
84264;SDS011;74412;45.626;5.108;2024-03-08T12:49:08;15.50;;;14.50;;
84264;SDS011;74412;45.626;5.108;2024-03-08T12:51:36;18.25;;;16.25;;
84264;SDS011;74412;45.626;5.108;2024-03-08T12:54:03;16.50;;;16.25;;
84264;SDS011;74412;45.626;5.108;2024-03-08T12:56:35;16.50;;;16.00;;
84264;SDS011;74412;45.626;5.108;2024-03-08T12:59:03;19.25;;;16.75;;
84264;SDS011;74412;45.626;5.108;2024-03-08T13:01:31;17.00;;;17.00;;
84264;SDS011;74412;45.626;5.108;2024-03-08T13:03:59;19.00;;;17.25;;
84264;SDS011;74412;45.626;5.108;2024-03-08T13:06:27;17.00;;;15.25;;
84264;SDS011;74412;45.626;5.108;2024-03-08T13:08:53;18.00;;;14.50;;
84264;SDS011;74412;45.626;5.108;2024-03-08T13:11:21;18.75;;;18.25;;
84264;SDS011;74412;45.626;5.108;2024-03-08T13:13:48;17.75;;;16.25;;
84264;SDS011;74412;45.626;5.108;2024-03-08T13:16:15;12.75;;;12.75;;
84264;SDS011;74412;45.626;5.108;2024-03-08T13:18:43;12.25;;;12.25;;
84264;SDS011;74412;45.626;5.108;2024-03-08T13:21:11;10.50;;;9.75;;
84264;SDS011;74412;45.626;5.108;2024-03-08T13:23:40;9.25;;;8.75;;
84264;SDS011;74412;45.626;5.108;2024-03-08T13:26:11;14.50;;;12.00;;
84264;SDS011;74412;45.626;5.108;2024-03-08T13:28:40;15.00;;;13.50;;
84264;SDS011;74412;45.626;5.108;2024-03-08T13:31:07;15.75;;;14.75;;
84264;SDS011;74412;45.626;5.108;2024-03-08T13:33:35;15.25;;;15.25;;
84264;SDS011;74412;45.626;5.108;2024-03-08T13:36:01;16.75;;;15.00;;
84264;SDS011;74412;45.626;5.108;2024-03-08T13:38:32;18.00;;;14.00;;
84264;SDS011;74412;45.626;5.108;2024-03-08T13:41:01;5.25;;;4.50;;
84264;SDS011;74412;45.626;5.108;2024-03-08T13:43:28;2.00;;;2.00;;
84264;SDS011;74412;45.626;5.108;2024-03-08T13:45:57;4.75;;;4.75;;
84264;SDS011;74412;45.626;5.108;2024-03-08T13:48:24;2.25;;;2.25;;
84264;SDS011;74412;45.626;5.108;2024-03-08T13:50:50;2.00;;;2.00;;
84264;SDS011;74412;45.626;5.108;2024-03-08T13:53:17;2.00;;;2.00;;
84264;SDS011;74412;45.626;5.108;2024-03-08T13:55:45;3.00;;;1.75;;
84264;SDS011;74412;45.626;5.108;2024-03-08T13:58:12;2.00;;;1.50;;
84264;SDS011;74412;45.626;5.108;2024-03-08T14:00:39;1.75;;;1.00;;
84264;SDS011;74412;45.626;5.108;2024-03-08T14:03:08;1.75;;;1.75;;
84264;SDS011;74412;45.626;5.108;2024-03-08T14:05:38;1.00;;;1.00;;
84264;SDS011;74412;45.626;5.108;2024-03-08T14:08:05;2.50;;;2.50;;
84264;SDS011;74412;45.626;5.108;2024-03-08T14:10:32;2.00;;;2.00;;
84264;SDS011;74412;45.626;5.108;2024-03-08T14:13:00;1.00;;;1.00;;
84264;SDS011;74412;45.626;5.108;2024-03-08T14:15:27;2.50;;;2.50;;
84264;SDS011;74412;45.626;5.108;2024-03-08T14:17:55;1.00;;;1.00;;
84264;SDS011;74412;45.626;5.108;2024-03-08T14:20:22;4.00;;;4.00;;
84264;SDS011;74412;45.626;5.108;2024-03-08T14:22:50;5.75;;;5.75;;
84264;SDS011;74412;45.626;5.108;2024-03-08T14:25:17;6.25;;;5.00;;
84264;SDS011;74412;45.626;5.108;2024-03-08T14:27:48;10.25;;;3.75;;
84264;SDS011;74412;45.626;5.108;2024-03-08T14:30:20;6.75;;;5.50;;
84264;SDS011;74412;45.626;5.108;2024-03-08T14:32:59;4.00;;;3.00;;
84264;SDS011;74412;45.626;5.108;2024-03-08T14:35:26;3.00;;;2.50;;
84264;SDS011;74412;45.626;5.108;2024-03-08T14:37:54;3.75;;;2.25;;
84264;SDS011;74412;45.626;5.108;2024-03-08T14:40:22;2.50;;;2.50;;
84264;SDS011;74412;45.626;5.108;2024-03-08T14:42:49;3.50;;;3.00;;